createdAt,value
2022-10-21T00:00:10.449Z,1.40
2022-10-21T00:02:37.769Z,1.30
2022-10-21T00:05:05.279Z,1.40
2022-10-21T00:07:32.432Z,1.40
2022-10-21T00:09:59.584Z,1.77
2022-10-21T00:12:28.785Z,1.20
2022-10-21T00:14:57.274Z,1.40
2022-10-21T00:17:24.644Z,1.30
2022-10-21T00:19:51.782Z,1.30
2022-10-21T00:22:18.884Z,1.40
2022-10-21T00:24:46.008Z,1.40
2022-10-21T00:27:13.107Z,1.40
2022-10-21T00:29:40.211Z,1.40
2022-10-21T00:32:07.335Z,1.17
2022-10-21T00:34:34.456Z,1.40
2022-10-21T00:37:01.557Z,1.20
2022-10-21T00:39:28.757Z,1.30
2022-10-21T00:41:55.936Z,1.60
2022-10-21T00:44:23.125Z,1.30
2022-10-21T00:46:54.976Z,1.30
2022-10-21T00:49:25.860Z,1.37
2022-10-21T00:51:56.508Z,1.30
2022-10-21T00:54:24.690Z,1.40
2022-10-21T00:56:52.898Z,1.47
2022-10-21T00:59:20.297Z,1.60
2022-10-21T01:01:48.937Z,1.33
2022-10-21T01:04:16.107Z,1.30
2022-10-21T01:06:43.299Z,1.40
2022-10-21T01:09:10.635Z,1.40
2022-10-21T01:11:42.507Z,1.60
2022-10-21T01:14:21.774Z,1.40
2022-10-21T01:16:54.606Z,1.40
2022-10-21T01:19:21.672Z,1.60
2022-10-21T01:21:54.283Z,1.50
2022-10-21T01:24:27.441Z,1.63
2022-10-21T01:27:06.448Z,1.40
2022-10-21T01:29:42.585Z,1.70
2022-10-21T01:32:24.774Z,1.40
2022-10-21T01:35:13.358Z,1.37
2022-10-21T01:37:46.572Z,1.40
2022-10-21T01:40:26.553Z,1.53
2022-10-21T01:42:55.595Z,1.40
2022-10-21T01:45:29.101Z,1.40
2022-10-21T01:48:22.431Z,1.50
2022-10-21T01:50:52.736Z,1.63
2022-10-21T01:53:21.696Z,1.30
2022-10-21T01:55:49.847Z,1.80
2022-10-21T01:58:19.653Z,1.57
2022-10-21T02:00:47.694Z,1.60
2022-10-21T02:03:18.164Z,1.70
2022-10-21T02:05:45.285Z,1.63
2022-10-21T02:08:12.437Z,1.60
2022-10-21T02:10:41.277Z,1.60
2022-10-21T02:13:10.344Z,1.53
2022-10-21T02:15:38.544Z,1.60
2022-10-21T02:18:07.350Z,1.70
2022-10-21T02:20:36.858Z,1.40
2022-10-21T02:23:04.480Z,1.80
2022-10-21T02:25:33.646Z,1.50
2022-10-21T02:28:01.173Z,1.80
2022-10-21T02:30:32.491Z,1.87
2022-10-21T02:33:09.793Z,1.67
2022-10-21T02:35:36.888Z,1.70
2022-10-21T02:38:03.960Z,1.70
2022-10-21T02:40:35.471Z,1.80
2022-10-21T02:43:07.598Z,1.80
2022-10-21T02:45:36.375Z,1.63
2022-10-21T02:48:04.139Z,1.60
2022-10-21T02:50:31.230Z,1.60
2022-10-21T02:52:58.322Z,2.00
2022-10-21T02:55:25.576Z,1.80
2022-10-21T02:57:52.681Z,1.80
2022-10-21T03:00:19.880Z,1.87
2022-10-21T03:02:47.031Z,1.83
2022-10-21T03:05:14.172Z,1.90
2022-10-21T03:07:41.800Z,1.90
2022-10-21T03:10:09.546Z,1.77
2022-10-21T03:12:36.664Z,1.90
2022-10-21T03:15:04.100Z,1.63
2022-10-21T03:17:31.219Z,1.70
2022-10-21T03:19:58.318Z,1.67
2022-10-21T03:22:25.451Z,1.87
2022-10-21T03:24:52.584Z,1.77
2022-10-21T03:27:19.745Z,1.70
2022-10-21T03:29:46.938Z,1.93
2022-10-21T03:32:14.097Z,1.67
2022-10-21T03:34:41.191Z,2.00
2022-10-21T03:37:08.297Z,2.10
2022-10-21T03:39:35.390Z,1.77
2022-10-21T03:42:02.492Z,1.87
2022-10-21T03:44:29.660Z,2.07
2022-10-21T03:46:56.864Z,1.80
2022-10-21T03:49:24.061Z,1.97
2022-10-21T03:51:51.192Z,1.87
2022-10-21T03:54:18.736Z,1.77
2022-10-21T03:56:46.996Z,1.83
2022-10-21T03:59:14.149Z,1.93
2022-10-21T04:01:41.300Z,1.87
2022-10-21T04:04:08.483Z,1.80
2022-10-21T04:06:35.579Z,2.00
2022-10-21T04:09:02.810Z,1.90
2022-10-21T04:11:29.998Z,1.80
2022-10-21T04:13:57.147Z,2.07
2022-10-21T04:16:24.327Z,1.93
2022-10-21T04:18:51.448Z,2.07
2022-10-21T04:21:18.580Z,2.40
2022-10-21T04:23:45.777Z,2.27
2022-10-21T04:26:12.948Z,1.90
2022-10-21T04:28:40.082Z,2.20
2022-10-21T04:31:07.183Z,2.13
2022-10-21T04:33:34.273Z,2.00
2022-10-21T04:36:01.448Z,2.23
2022-10-21T04:38:28.853Z,2.13
2022-10-21T04:40:56.817Z,2.30
2022-10-21T04:43:24.142Z,2.53
2022-10-21T04:45:51.243Z,2.47
2022-10-21T04:48:18.420Z,2.57
2022-10-21T04:50:45.520Z,2.63
2022-10-21T04:53:12.632Z,2.20
2022-10-21T04:55:40.402Z,2.70
2022-10-21T04:58:07.862Z,2.63
2022-10-21T05:00:34.997Z,2.67
2022-10-21T05:03:02.241Z,2.67
2022-10-21T05:05:29.371Z,2.60
2022-10-21T05:07:56.459Z,2.47
2022-10-21T05:10:24.276Z,2.90
2022-10-21T05:12:51.640Z,2.43
2022-10-21T05:15:18.804Z,2.53
2022-10-21T05:17:45.911Z,2.73
2022-10-21T05:20:13.086Z,2.90
2022-10-21T05:22:40.684Z,2.90
2022-10-21T05:25:08.427Z,2.70
2022-10-21T05:27:35.542Z,3.27
2022-10-21T05:30:02.835Z,3.27
2022-10-21T05:32:29.934Z,3.20
2022-10-21T05:34:57.040Z,3.27
2022-10-21T05:37:24.213Z,3.27
2022-10-21T05:39:51.320Z,3.03
2022-10-21T05:42:18.480Z,2.90
2022-10-21T05:44:45.605Z,3.43
2022-10-21T05:47:12.750Z,3.00
2022-10-21T05:49:39.874Z,3.43
2022-10-21T05:52:07.003Z,3.40
2022-10-21T05:54:34.103Z,3.30
2022-10-21T05:57:02.484Z,3.20
2022-10-21T05:59:29.634Z,3.37
2022-10-21T06:01:56.776Z,3.53
2022-10-21T06:04:23.926Z,3.73
2022-10-21T06:06:51.151Z,3.73
2022-10-21T06:09:18.328Z,3.97
2022-10-21T06:11:45.459Z,3.83
2022-10-21T06:14:12.568Z,4.20
2022-10-21T06:16:39.643Z,4.13
2022-10-21T06:19:06.981Z,4.50
2022-10-21T06:21:34.200Z,4.37
2022-10-21T06:24:01.327Z,5.13
2022-10-21T06:26:30.924Z,4.00
2022-10-21T06:29:00.406Z,4.53
2022-10-21T06:31:27.895Z,4.30
2022-10-21T06:33:55.020Z,3.97
2022-10-21T06:36:22.112Z,4.60
2022-10-21T06:38:49.266Z,4.53
2022-10-21T06:41:18.036Z,4.77
2022-10-21T06:43:45.246Z,4.60
2022-10-21T06:46:13.647Z,4.77
2022-10-21T06:48:41.048Z,4.50
2022-10-21T06:51:21.457Z,4.27
2022-10-21T06:53:51.753Z,4.77
2022-10-21T06:56:19.853Z,4.80
2022-10-21T06:58:48.932Z,5.10
2022-10-21T07:01:28.035Z,4.97
2022-10-21T07:04:01.543Z,4.97
2022-10-21T07:06:28.778Z,4.90
2022-10-21T07:08:59.510Z,5.03
2022-10-21T07:11:27.692Z,4.67
2022-10-21T07:13:54.913Z,5.60
2022-10-21T07:16:26.685Z,4.70
2022-10-21T07:18:54.154Z,4.70
2022-10-21T07:21:22.579Z,4.90
2022-10-21T07:23:55.584Z,5.30
2022-10-21T07:26:25.663Z,4.67
2022-10-21T07:28:52.857Z,5.10
2022-10-21T07:31:21.491Z,4.60
2022-10-21T07:33:49.094Z,4.63
2022-10-21T07:36:27.068Z,5.00
2022-10-21T07:38:54.889Z,4.67
2022-10-21T07:41:26.319Z,4.87
2022-10-21T07:43:54.004Z,4.57
2022-10-21T07:46:21.842Z,4.97
2022-10-21T07:48:49.275Z,4.60
2022-10-21T07:51:18.461Z,4.73
2022-10-21T07:53:45.602Z,4.53
2022-10-21T07:56:15.320Z,4.70
2022-10-21T07:58:43.027Z,4.87
2022-10-21T08:01:10.954Z,4.60
2022-10-21T08:03:38.690Z,4.40
2022-10-21T08:06:06.490Z,4.57
2022-10-21T08:08:33.992Z,4.50
2022-10-21T08:11:01.310Z,4.67
2022-10-21T08:13:28.637Z,4.70
2022-10-21T08:15:56.930Z,4.80
2022-10-21T08:18:24.593Z,4.80
2022-10-21T08:20:51.714Z,4.73
2022-10-21T08:23:19.966Z,4.40
2022-10-21T08:25:50.831Z,4.27
2022-10-21T08:28:18.542Z,4.83
2022-10-21T08:30:46.024Z,4.63
2022-10-21T08:33:13.884Z,4.80
2022-10-21T08:35:41.170Z,5.00
2022-10-21T08:38:08.423Z,4.90
2022-10-21T08:40:38.683Z,5.30
2022-10-21T08:43:25.690Z,4.87
2022-10-21T08:45:55.341Z,5.17
2022-10-21T08:48:25.301Z,5.50
2022-10-21T08:50:54.159Z,5.30
2022-10-21T08:53:24.375Z,4.90
2022-10-21T08:55:52.875Z,5.30
2022-10-21T08:58:21.998Z,4.83
2022-10-21T09:00:51.440Z,5.27
2022-10-21T09:03:18.580Z,5.30
2022-10-21T09:05:54.822Z,5.23
2022-10-21T09:08:42.038Z,5.17
2022-10-21T09:11:14.344Z,5.73
2022-10-21T09:14:01.308Z,5.43
2022-10-21T09:16:34.262Z,5.10
2022-10-21T09:19:07.954Z,5.40
2022-10-21T09:21:46.419Z,5.30
2022-10-21T09:24:15.975Z,5.30
2022-10-21T09:26:45.272Z,5.83
2022-10-21T09:29:21.141Z,5.07
2022-10-21T09:31:54.364Z,5.40
2022-10-21T09:34:43.418Z,4.80
2022-10-21T09:37:15.489Z,4.93
2022-10-21T09:39:46.464Z,5.80
2022-10-21T09:42:35.311Z,5.10
2022-10-21T09:45:01.045Z,4.53
2022-10-21T09:47:28.244Z,4.93
2022-10-21T09:50:13.830Z,4.90
2022-10-21T09:52:43.280Z,4.70
2022-10-21T09:55:13.502Z,4.53
2022-10-21T09:57:47.048Z,4.70
2022-10-21T10:00:14.428Z,4.67
2022-10-21T10:02:43.275Z,4.73
2022-10-21T10:05:28.975Z,4.57
2022-10-21T10:07:56.108Z,4.63
2022-10-21T10:10:33.795Z,4.70
2022-10-21T10:13:01.234Z,5.23
2022-10-21T10:15:38.673Z,4.70
2022-10-21T10:18:19.036Z,4.87
2022-10-21T10:20:46.131Z,4.70
2022-10-21T10:23:19.439Z,4.70
2022-10-21T10:25:50.473Z,4.73
2022-10-21T10:28:20.528Z,4.50
2022-10-21T10:30:49.206Z,4.57
2022-10-21T10:33:21.431Z,4.87
2022-10-21T10:35:49.864Z,5.27
2022-10-21T10:38:22.008Z,5.00
2022-10-21T10:40:49.542Z,4.73
2022-10-21T10:43:23.777Z,5.07
2022-10-21T10:45:54.321Z,4.90
2022-10-21T10:48:33.606Z,5.23
2022-10-21T10:51:00.713Z,5.20
2022-10-21T10:53:32.427Z,4.90
2022-10-21T10:56:02.084Z,5.40
2022-10-21T10:58:32.286Z,5.27
2022-10-21T11:01:01.376Z,5.20
2022-10-21T11:03:36.825Z,5.40
2022-10-21T11:06:09.153Z,5.10
2022-10-21T11:08:42.131Z,4.73
2022-10-21T11:11:15.884Z,5.23
2022-10-21T11:13:43.074Z,5.30
2022-10-21T11:16:45.169Z,5.10
2022-10-21T11:19:19.097Z,5.10
2022-10-21T11:21:53.086Z,5.27
2022-10-21T11:24:32.231Z,5.17
2022-10-21T11:27:03.393Z,5.53
2022-10-21T11:29:45.950Z,5.40
2022-10-21T11:32:23.520Z,6.20
2022-10-21T11:35:08.691Z,5.77
2022-10-21T11:37:41.993Z,6.53
2022-10-21T11:40:09.213Z,6.30
2022-10-21T11:42:43.662Z,6.33
2022-10-21T11:45:29.262Z,5.10
2022-10-21T11:48:03.313Z,5.97
2022-10-21T11:50:40.139Z,6.03
2022-10-21T11:53:19.332Z,6.10
2022-10-21T11:55:46.424Z,6.10
2022-10-21T11:58:22.456Z,5.73
2022-10-21T12:00:58.408Z,6.07
2022-10-21T12:03:48.065Z,6.23
2022-10-21T12:06:29.028Z,6.70
2022-10-21T12:09:01.566Z,5.93
2022-10-21T12:11:31.673Z,5.47
2022-10-21T12:14:01.148Z,5.63
2022-10-21T12:16:30.744Z,5.60
2022-10-21T12:19:01.190Z,5.63
2022-10-21T12:21:30.355Z,5.10
2022-10-21T12:24:17.731Z,5.97
2022-10-21T12:26:50.641Z,5.70
2022-10-21T12:29:24.107Z,5.40
2022-10-21T12:32:04.243Z,5.77
2022-10-21T12:34:31.382Z,6.43
2022-10-21T12:36:58.485Z,6.00
2022-10-21T12:39:34.950Z,6.07
2022-10-21T12:42:15.395Z,6.40
2022-10-21T12:44:53.075Z,6.10
2022-10-21T12:47:29.761Z,6.17
2022-10-21T12:50:15.308Z,6.00
2022-10-21T12:52:43.369Z,5.80
2022-10-21T12:55:24.443Z,5.80
2022-10-21T12:57:59.958Z,6.20
2022-10-21T13:00:29.833Z,6.53
2022-10-21T13:02:59.863Z,5.90
2022-10-21T13:05:46.928Z,6.20
2022-10-21T13:08:20.063Z,6.27
2022-10-21T13:11:05.435Z,6.30
2022-10-21T13:13:35.708Z,7.00
2022-10-21T13:16:23.771Z,6.67
2022-10-21T13:18:53.895Z,6.20
2022-10-21T13:21:31.234Z,6.00
2022-10-21T13:24:05.193Z,6.40
2022-10-21T13:26:32.465Z,6.10
2022-10-21T13:29:01.697Z,6.53
2022-10-21T13:31:29.212Z,6.00
2022-10-21T13:33:56.972Z,6.30
2022-10-21T13:39:23.759Z,6.20
2022-10-21T13:42:05.347Z,5.90
2022-10-21T13:44:40.814Z,6.27
2022-10-21T13:47:20.149Z,6.10
2022-10-21T13:49:54.204Z,6.33
2022-10-21T13:52:21.358Z,5.43
2022-10-21T13:54:56.684Z,5.43
2022-10-21T13:57:23.884Z,5.30
2022-10-21T14:00:09.027Z,5.50
2022-10-21T14:02:36.243Z,5.47
2022-10-21T14:05:03.580Z,6.00
2022-10-21T14:07:30.783Z,5.60
2022-10-21T14:09:58.863Z,5.83
2022-10-21T14:12:26.058Z,5.63
2022-10-21T14:14:54.175Z,5.50
2022-10-21T14:17:23.353Z,5.77
2022-10-21T14:20:10.722Z,5.67
2022-10-21T14:22:38.055Z,5.57
2022-10-21T14:25:07.384Z,5.23
2022-10-21T14:27:35.555Z,6.17
2022-10-21T14:30:04.589Z,5.70
2022-10-21T14:32:31.948Z,5.60
2022-10-21T14:34:59.290Z,5.83
2022-10-21T14:37:26.448Z,5.77
2022-10-21T14:39:53.630Z,5.57
2022-10-21T14:42:24.557Z,5.10
2022-10-21T14:44:52.945Z,5.30
2022-10-21T14:47:22.360Z,5.90
2022-10-21T14:49:51.575Z,6.23
2022-10-21T14:52:34.885Z,5.87
2022-10-21T14:55:03.833Z,5.60
2022-10-21T14:57:33.992Z,5.50
2022-10-21T15:00:01.380Z,5.50
2022-10-21T15:02:34.347Z,5.27
2022-10-21T15:05:02.685Z,5.87
2022-10-21T15:07:34.372Z,5.83
2022-10-21T15:10:04.403Z,5.37
2022-10-21T15:12:48.618Z,5.33
2022-10-21T15:15:35.777Z,5.30
2022-10-21T15:18:05.287Z,5.60
2022-10-21T15:20:34.732Z,5.53
2022-10-21T15:23:01.867Z,5.63
2022-10-21T15:25:29.693Z,5.50
2022-10-21T15:27:59.961Z,5.63
2022-10-21T15:30:34.514Z,5.43
2022-10-21T15:33:01.695Z,5.47
2022-10-21T15:35:28.847Z,6.33
2022-10-21T15:37:56.139Z,5.50
2022-10-21T15:40:23.501Z,5.57
2022-10-21T15:42:50.720Z,5.43
2022-10-21T15:45:21.187Z,5.87
2022-10-21T15:47:53.621Z,5.50
2022-10-21T15:50:24.377Z,5.50
2022-10-21T15:52:51.589Z,5.70
2022-10-21T15:55:18.767Z,5.70
2022-10-21T15:57:45.942Z,5.27
2022-10-21T16:00:19.047Z,5.40
2022-10-21T16:02:51.518Z,5.50
2022-10-21T16:05:19.623Z,5.43
2022-10-21T16:07:46.824Z,6.00
2022-10-21T16:10:19.028Z,5.53
2022-10-21T16:12:46.604Z,5.50
2022-10-21T16:15:14.362Z,5.60
2022-10-21T16:17:45.357Z,5.60
2022-10-21T16:22:46.163Z,7.00
2022-10-21T16:25:13.949Z,5.03
2022-10-21T16:27:55.574Z,5.20
2022-10-21T16:30:30.795Z,5.00
2022-10-21T16:32:57.901Z,5.33
2022-10-21T16:35:25.343Z,5.53
2022-10-21T16:37:52.456Z,4.90
2022-10-21T16:40:22.315Z,5.10
2022-10-21T16:42:50.512Z,4.90
2022-10-21T16:45:18.569Z,5.00
2022-10-21T16:47:48.528Z,4.77
2022-10-21T16:50:23.245Z,4.90
2022-10-21T16:52:50.415Z,4.87
2022-10-21T16:55:17.638Z,172.95
2022-10-21T16:57:44.862Z,225.13
2022-10-21T17:00:12.692Z,93.30
2022-10-21T17:02:40.668Z,49.65
2022-10-21T17:05:08.527Z,35.53
2022-10-21T17:07:35.681Z,6.23
2022-10-21T17:10:02.877Z,8.43
2022-10-21T17:12:32.704Z,6.97
2022-10-21T17:14:59.868Z,4.87
2022-10-21T17:17:27.021Z,5.10
2022-10-21T17:19:54.137Z,4.60
2022-10-21T17:22:21.254Z,4.60
2022-10-21T17:24:49.189Z,4.40
2022-10-21T17:27:19.631Z,4.33
2022-10-21T17:29:47.318Z,4.60
2022-10-21T17:32:14.503Z,4.57
2022-10-21T17:34:41.886Z,5.07
2022-10-21T17:37:12.221Z,4.97
2022-10-21T17:39:39.376Z,4.90
2022-10-21T17:42:06.612Z,4.87
2022-10-21T17:44:33.848Z,4.90
2022-10-21T17:47:00.945Z,4.70
2022-10-21T17:49:28.050Z,4.80
2022-10-21T17:51:55.212Z,4.70
2022-10-21T17:54:25.985Z,5.20
2022-10-21T17:56:56.753Z,5.30
2022-10-21T17:59:24.296Z,4.90
2022-10-21T18:01:51.500Z,4.43
2022-10-21T18:04:18.650Z,4.80
2022-10-21T18:06:45.749Z,4.60
2022-10-21T18:09:12.987Z,4.73
2022-10-21T18:11:40.180Z,5.00
2022-10-21T18:14:07.289Z,5.00
2022-10-21T18:16:34.910Z,4.70
2022-10-21T18:19:03.215Z,4.70
2022-10-21T18:21:31.039Z,4.90
2022-10-21T18:23:58.169Z,5.00
2022-10-21T18:26:26.919Z,4.83
2022-10-21T18:28:57.048Z,4.80
2022-10-21T18:31:24.950Z,5.50
2022-10-21T18:33:54.740Z,5.17
2022-10-21T18:36:21.933Z,4.90
2022-10-21T18:38:49.322Z,4.77
2022-10-21T18:41:20.553Z,5.23
2022-10-21T18:43:52.513Z,5.30
2022-10-21T18:46:20.272Z,5.07
2022-10-21T18:48:47.455Z,5.00
2022-10-21T18:51:19.105Z,4.93
2022-10-21T18:53:49.887Z,4.80
2022-10-21T18:56:19.836Z,4.90
2022-10-21T18:58:47.135Z,5.00
2022-10-21T19:01:17.646Z,5.07
2022-10-21T19:03:44.973Z,5.03
2022-10-21T19:06:16.013Z,4.70
2022-10-21T19:08:43.221Z,5.20
2022-10-21T19:11:10.327Z,4.83
2022-10-21T19:13:37.510Z,4.93
2022-10-21T19:16:04.677Z,4.93
2022-10-21T19:18:31.787Z,5.10
2022-10-21T19:20:58.945Z,5.03
2022-10-21T19:23:27.728Z,5.00
2022-10-21T19:25:54.897Z,5.33
2022-10-21T19:28:22.121Z,5.27
2022-10-21T19:30:49.225Z,5.10
2022-10-21T19:33:16.425Z,5.97
2022-10-21T19:35:43.565Z,5.10
2022-10-21T19:38:11.651Z,5.37
2022-10-21T19:43:19.789Z,5.10
2022-10-21T19:45:46.892Z,5.23
2022-10-21T19:48:16.038Z,5.43
2022-10-21T19:50:46.837Z,5.17
2022-10-21T19:53:14.187Z,5.77
2022-10-21T19:55:41.349Z,5.70
2022-10-21T19:58:08.464Z,6.00
2022-10-21T20:00:36.575Z,5.43
2022-10-21T20:03:04.600Z,5.20
2022-10-21T20:05:34.499Z,5.60
2022-10-21T20:08:01.603Z,6.00
2022-10-21T20:10:28.853Z,5.60
2022-10-21T20:12:55.958Z,5.87
2022-10-21T20:15:23.068Z,5.87
2022-10-21T20:17:50.221Z,5.87
2022-10-21T20:20:17.319Z,6.07
2022-10-21T20:22:44.441Z,6.07
2022-10-21T20:25:12.367Z,6.27
2022-10-21T20:27:39.724Z,6.50
2022-10-21T20:30:08.448Z,6.43
2022-10-21T20:32:35.619Z,7.13
2022-10-21T20:35:02.773Z,7.13
2022-10-21T20:37:29.902Z,6.27
2022-10-21T20:39:57.005Z,6.97
2022-10-21T20:42:24.102Z,7.10
2022-10-21T20:44:51.303Z,6.93
2022-10-21T20:47:19.143Z,6.90
2022-10-21T20:49:46.281Z,7.67
2022-10-21T20:52:13.904Z,7.60
2022-10-21T20:54:41.029Z,7.30
2022-10-21T20:57:08.150Z,7.40
2022-10-21T20:59:35.322Z,7.53
2022-10-21T21:02:02.432Z,7.40
2022-10-21T21:04:29.631Z,7.60
2022-10-21T21:06:56.727Z,7.30
2022-10-21T21:12:11.039Z,8.03
2022-10-21T21:14:38.149Z,7.30
2022-10-21T21:17:05.529Z,7.63
2022-10-21T21:19:32.664Z,7.33
2022-10-21T21:21:59.824Z,7.33
2022-10-21T21:24:26.948Z,7.70
2022-10-21T21:26:54.098Z,7.57
2022-10-21T21:29:21.212Z,6.83
2022-10-21T21:31:48.298Z,6.97
2022-10-21T21:34:15.538Z,7.77
2022-10-21T21:36:42.688Z,7.20
2022-10-21T21:39:11.109Z,7.23
2022-10-21T21:41:38.318Z,7.37
2022-10-21T21:44:06.438Z,7.20
2022-10-21T21:46:33.666Z,7.13
2022-10-21T21:49:05.224Z,7.53
2022-10-21T21:51:33.667Z,7.43
2022-10-21T21:54:00.786Z,7.80
2022-10-21T21:56:28.337Z,8.00
2022-10-21T21:58:57.569Z,8.03
2022-10-21T22:01:26.030Z,7.60
2022-10-21T22:03:53.331Z,7.77
2022-10-21T22:06:21.653Z,7.73
2022-10-21T22:08:49.204Z,7.27
2022-10-21T22:11:17.857Z,7.73
2022-10-21T22:13:45.157Z,7.83
2022-10-21T22:16:13.319Z,8.00
2022-10-21T22:18:40.806Z,7.70
2022-10-21T22:21:09.253Z,7.77
2022-10-21T22:23:36.783Z,7.73
2022-10-21T22:26:03.992Z,7.73
2022-10-21T22:28:31.141Z,7.60
2022-10-21T22:31:00.083Z,7.93
2022-10-21T22:33:27.454Z,7.40
2022-10-21T22:35:54.612Z,7.40
2022-10-21T22:38:21.776Z,7.33
2022-10-21T22:40:52.696Z,7.23
2022-10-21T22:43:19.904Z,7.60
2022-10-21T22:45:48.167Z,6.83
2022-10-21T22:48:15.633Z,6.87
2022-10-21T22:50:43.054Z,6.87
2022-10-21T22:53:10.543Z,7.60
2022-10-21T22:55:39.382Z,6.63
2022-10-21T22:58:07.201Z,6.57
2022-10-21T23:00:34.426Z,6.57
2022-10-21T23:03:03.229Z,6.87
2022-10-21T23:05:33.153Z,6.50
2022-10-21T23:08:00.355Z,7.03
2022-10-21T23:10:27.484Z,6.27
2022-10-21T23:12:54.576Z,6.60
2022-10-21T23:15:21.704Z,6.47
2022-10-21T23:17:48.820Z,5.90
2022-10-21T23:20:16.017Z,6.33
2022-10-21T23:22:43.315Z,6.10
2022-10-21T23:25:10.552Z,6.00
2022-10-21T23:27:37.661Z,6.57
2022-10-21T23:30:05.060Z,6.20
2022-10-21T23:32:32.197Z,6.30
2022-10-21T23:34:59.302Z,6.20
2022-10-21T23:37:26.405Z,6.10
2022-10-21T23:39:53.560Z,6.27
2022-10-21T23:42:20.651Z,5.80
2022-10-21T23:44:47.810Z,6.50
2022-10-21T23:47:14.919Z,6.13
2022-10-21T23:49:42.053Z,6.40
2022-10-21T23:52:09.200Z,6.10
2022-10-21T23:54:36.347Z,5.93
2022-10-21T23:57:03.613Z,6.30
2022-10-21T23:59:30.726Z,5.80
